sensor_id;sensor_type;location;lat;lon;timestamp;pressure;altitude;pressure_sealevel;temperature;humidity
27202;BME280;14717;46.924;15.474;2024-03-07T00:02:19;97884.69;;;3.61;100.00
27202;BME280;14717;46.924;15.474;2024-03-07T00:04:45;97889.81;;;3.58;100.00
27202;BME280;14717;46.924;15.474;2024-03-07T00:07:10;97890.56;;;3.70;100.00
27202;BME280;14717;46.924;15.474;2024-03-07T00:09:36;97881.13;;;3.61;100.00
27202;BME280;14717;46.924;15.474;2024-03-07T00:12:02;97892.97;;;3.50;100.00
27202;BME280;14717;46.924;15.474;2024-03-07T00:14:27;97890.22;;;3.50;100.00
27202;BME280;14717;46.924;15.474;2024-03-07T00:16:54;97881.31;;;3.54;100.00
27202;BME280;14717;46.924;15.474;2024-03-07T00:19:20;97876.84;;;3.48;100.00
27202;BME280;14717;46.924;15.474;2024-03-07T00:21:46;97887.94;;;3.42;100.00
27202;BME280;14717;46.924;15.474;2024-03-07T00:24:12;97894.06;;;3.49;100.00
27202;BME280;14717;46.924;15.474;2024-03-07T00:26:39;97887.44;;;3.29;100.00
27202;BME280;14717;46.924;15.474;2024-03-07T00:29:05;97881.63;;;3.25;100.00
27202;BME280;14717;46.924;15.474;2024-03-07T00:31:31;97889.25;;;3.39;100.00
27202;BME280;14717;46.924;15.474;2024-03-07T00:33:57;97878.22;;;3.18;100.00
27202;BME280;14717;46.924;15.474;2024-03-07T00:36:22;97883.19;;;3.21;100.00
27202;BME280;14717;46.924;15.474;2024-03-07T00:38:47;97882.63;;;3.19;100.00
27202;BME280;14717;46.924;15.474;2024-03-07T00:41:13;97875.09;;;3.26;100.00
27202;BME280;14717;46.924;15.474;2024-03-07T00:43:39;97871.06;;;3.29;100.00
27202;BME280;14717;46.924;15.474;2024-03-07T00:46:04;97880.78;;;3.08;100.00
27202;BME280;14717;46.924;15.474;2024-03-07T00:48:31;97880.50;;;2.94;100.00
27202;BME280;14717;46.924;15.474;2024-03-07T00:50:57;97879.63;;;2.77;100.00
27202;BME280;14717;46.924;15.474;2024-03-07T00:53:22;97870.34;;;2.61;100.00
27202;BME280;14717;46.924;15.474;2024-03-07T00:55:47;97880.16;;;2.62;100.00
27202;BME280;14717;46.924;15.474;2024-03-07T00:58:13;97879.94;;;2.53;100.00
27202;BME280;14717;46.924;15.474;2024-03-07T01:00:38;97878.69;;;2.44;100.00
27202;BME280;14717;46.924;15.474;2024-03-07T01:03:08;97880.56;;;2.43;100.00
27202;BME280;14717;46.924;15.474;2024-03-07T01:05:36;97878.44;;;2.45;100.00
27202;BME280;14717;46.924;15.474;2024-03-07T01:08:01;97880.66;;;2.48;100.00
27202;BME280;14717;46.924;15.474;2024-03-07T01:10:27;97890.03;;;2.52;100.00
27202;BME280;14717;46.924;15.474;2024-03-07T01:12:53;97883.38;;;2.48;100.00
27202;BME280;14717;46.924;15.474;2024-03-07T01:15:23;97877.22;;;2.53;100.00
27202;BME280;14717;46.924;15.474;2024-03-07T01:17:48;97880.09;;;2.46;100.00
27202;BME280;14717;46.924;15.474;2024-03-07T01:20:13;97870.38;;;2.50;100.00
27202;BME280;14717;46.924;15.474;2024-03-07T01:22:39;97871.34;;;2.44;100.00
27202;BME280;14717;46.924;15.474;2024-03-07T01:25:05;97869.19;;;2.46;100.00
27202;BME280;14717;46.924;15.474;2024-03-07T01:27:31;97868.97;;;2.36;100.00
27202;BME280;14717;46.924;15.474;2024-03-07T01:29:57;97869.34;;;2.28;100.00
27202;BME280;14717;46.924;15.474;2024-03-07T01:32:22;97868.78;;;2.26;100.00
27202;BME280;14717;46.924;15.474;2024-03-07T01:34:48;97876.72;;;2.28;100.00
27202;BME280;14717;46.924;15.474;2024-03-07T01:37:13;97860.44;;;2.44;100.00
27202;BME280;14717;46.924;15.474;2024-03-07T01:39:38;97870.66;;;2.37;100.00
27202;BME280;14717;46.924;15.474;2024-03-07T01:42:04;97859.06;;;2.30;100.00
27202;BME280;14717;46.924;15.474;2024-03-07T01:44:29;97860.84;;;2.25;100.00
27202;BME280;14717;46.924;15.474;2024-03-07T01:46:57;97856.56;;;2.29;100.00
27202;BME280;14717;46.924;15.474;2024-03-07T01:49:23;97865.59;;;2.18;100.00
27202;BME280;14717;46.924;15.474;2024-03-07T01:51:48;97857.44;;;2.07;100.00
27202;BME280;14717;46.924;15.474;2024-03-07T01:54:13;97862.41;;;2.21;100.00
27202;BME280;14717;46.924;15.474;2024-03-07T01:56:39;97860.59;;;2.26;100.00
27202;BME280;14717;46.924;15.474;2024-03-07T01:59:06;97859.53;;;2.27;100.00
27202;BME280;14717;46.924;15.474;2024-03-07T02:01:32;97863.44;;;2.31;100.00
27202;BME280;14717;46.924;15.474;2024-03-07T02:03:58;97863.09;;;2.28;100.00
27202;BME280;14717;46.924;15.474;2024-03-07T02:06:25;97867.19;;;2.03;100.00
27202;BME280;14717;46.924;15.474;2024-03-07T02:08:51;97867.19;;;2.03;100.00
27202;BME280;14717;46.924;15.474;2024-03-07T02:11:16;97861.94;;;2.12;100.00
27202;BME280;14717;46.924;15.474;2024-03-07T02:13:42;97858.00;;;2.20;100.00
27202;BME280;14717;46.924;15.474;2024-03-07T02:16:07;97859.13;;;2.08;100.00
27202;BME280;14717;46.924;15.474;2024-03-07T02:18:34;97863.78;;;2.23;100.00
27202;BME280;14717;46.924;15.474;2024-03-07T02:21:00;97855.78;;;2.17;100.00
27202;BME280;14717;46.924;15.474;2024-03-07T02:23:25;97851.66;;;2.03;100.00
27202;BME280;14717;46.924;15.474;2024-03-07T02:25:52;97855.19;;;2.04;100.00
27202;BME280;14717;46.924;15.474;2024-03-07T02:28:18;97854.28;;;1.87;100.00
27202;BME280;14717;46.924;15.474;2024-03-07T02:30:43;97858.91;;;1.98;100.00
27202;BME280;14717;46.924;15.474;2024-03-07T02:33:10;97849.16;;;2.02;100.00
27202;BME280;14717;46.924;15.474;2024-03-07T02:35:37;97853.19;;;2.11;100.00
27202;BME280;14717;46.924;15.474;2024-03-07T02:38:03;97856.94;;;2.21;100.00
27202;BME280;14717;46.924;15.474;2024-03-07T02:40:29;97850.06;;;2.18;100.00
27202;BME280;14717;46.924;15.474;2024-03-07T02:42:55;97853.63;;;2.30;100.00
27202;BME280;14717;46.924;15.474;2024-03-07T02:45:20;97855.03;;;2.21;100.00
27202;BME280;14717;46.924;15.474;2024-03-07T02:47:46;97856.94;;;2.21;100.00
27202;BME280;14717;46.924;15.474;2024-03-07T02:50:11;97861.38;;;2.38;100.00
27202;BME280;14717;46.924;15.474;2024-03-07T02:52:37;97867.34;;;2.35;100.00
27202;BME280;14717;46.924;15.474;2024-03-07T02:55:02;97860.59;;;2.26;100.00
27202;BME280;14717;46.924;15.474;2024-03-07T02:57:30;97863.91;;;2.28;100.00
27202;BME280;14717;46.924;15.474;2024-03-07T02:59:55;97862.81;;;2.41;100.00
27202;BME280;14717;46.924;15.474;2024-03-07T03:02:21;97860.81;;;2.36;100.00
27202;BME280;14717;46.924;15.474;2024-03-07T03:04:47;97866.69;;;2.45;100.00
27202;BME280;14717;46.924;15.474;2024-03-07T03:07:12;97876.09;;;2.37;100.00
27202;BME280;14717;46.924;15.474;2024-03-07T03:09:38;97873.94;;;2.39;100.00
27202;BME280;14717;46.924;15.474;2024-03-07T03:12:11;97863.53;;;2.36;100.00
27202;BME280;14717;46.924;15.474;2024-03-07T03:14:36;97861.78;;;2.30;100.00
27202;BME280;14717;46.924;15.474;2024-03-07T03:17:02;97871.59;;;2.31;100.00
27202;BME280;14717;46.924;15.474;2024-03-07T03:19:28;97863.44;;;2.31;100.00
27202;BME280;14717;46.924;15.474;2024-03-07T03:21:53;97871.69;;;2.36;100.00
27202;BME280;14717;46.924;15.474;2024-03-07T03:24:23;97880.53;;;2.27;100.00
27202;BME280;14717;46.924;15.474;2024-03-07T03:26:48;97868.28;;;2.29;100.00
27202;BME280;14717;46.924;15.474;2024-03-07T03:29:14;97872.81;;;2.24;100.00
27202;BME280;14717;46.924;15.474;2024-03-07T03:31:42;97875.53;;;2.35;100.00
27202;BME280;14717;46.924;15.474;2024-03-07T03:34:07;97876.56;;;2.34;100.00
27202;BME280;14717;46.924;15.474;2024-03-07T03:36:35;97881.41;;;2.44;100.00
27202;BME280;14717;46.924;15.474;2024-03-07T03:39:00;97878.94;;;2.42;100.00
27202;BME280;14717;46.924;15.474;2024-03-07T03:41:26;97879.50;;;2.44;100.00
27202;BME280;14717;46.924;15.474;2024-03-07T03:43:52;97880.81;;;2.53;100.00
27202;BME280;14717;46.924;15.474;2024-03-07T03:46:18;97883.63;;;2.58;100.00
27202;BME280;14717;46.924;15.474;2024-03-07T03:48:43;97886.59;;;2.56;100.00
27202;BME280;14717;46.924;15.474;2024-03-07T03:51:09;97889.56;;;2.55;100.00
27202;BME280;14717;46.924;15.474;2024-03-07T03:53:36;97883.63;;;2.58;100.00
27202;BME280;14717;46.924;15.474;2024-03-07T03:56:02;97888.97;;;2.53;100.00
27202;BME280;14717;46.924;15.474;2024-03-07T03:58:30;97886.94;;;2.60;100.00
27202;BME280;14717;46.924;15.474;2024-03-07T04:00:55;97884.75;;;2.73;100.00
27202;BME280;14717;46.924;15.474;2024-03-07T04:03:21;97885.31;;;2.75;100.00
27202;BME280;14717;46.924;15.474;2024-03-07T04:05:46;97884.41;;;2.70;100.00
27202;BME280;14717;46.924;15.474;2024-03-07T04:08:12;97885.09;;;2.77;100.00
27202;BME280;14717;46.924;15.474;2024-03-07T04:10:37;97876.59;;;2.90;100.00
27202;BME280;14717;46.924;15.474;2024-03-07T04:13:03;97883.69;;;2.91;100.00
27202;BME280;14717;46.924;15.474;2024-03-07T04:15:28;97879.72;;;2.82;100.00
27202;BME280;14717;46.924;15.474;2024-03-07T04:17:56;97876.03;;;2.88;100.00
27202;BME280;14717;46.924;15.474;2024-03-07T04:20:22;97882.16;;;2.95;100.00
27202;BME280;14717;46.924;15.474;2024-03-07T04:22:47;97879.34;;;2.90;100.00
27202;BME280;14717;46.924;15.474;2024-03-07T04:25:14;97880.41;;;2.89;100.00
27202;BME280;14717;46.924;15.474;2024-03-07T04:27:39;97884.22;;;2.88;100.00
27202;BME280;14717;46.924;15.474;2024-03-07T04:30:06;97884.31;;;2.93;100.00
27202;BME280;14717;46.924;15.474;2024-03-07T04:32:32;97885.84;;;2.89;100.00
27202;BME280;14717;46.924;15.474;2024-03-07T04:34:59;97888.91;;;2.92;100.00
27202;BME280;14717;46.924;15.474;2024-03-07T04:37:26;97897.16;;;2.81;100.00
27202;BME280;14717;46.924;15.474;2024-03-07T04:39:52;97891.69;;;2.81;100.00
27202;BME280;14717;46.924;15.474;2024-03-07T04:42:18;97902.88;;;2.95;100.00
27202;BME280;14717;46.924;15.474;2024-03-07T04:44:43;97893.88;;;2.95;100.00
27202;BME280;14717;46.924;15.474;2024-03-07T04:47:09;97903.09;;;3.05;100.00
27202;BME280;14717;46.924;15.474;2024-03-07T04:49:34;97902.59;;;3.08;100.00
27202;BME280;14717;46.924;15.474;2024-03-07T04:52:01;97900.59;;;3.04;100.00
27202;BME280;14717;46.924;15.474;2024-03-07T04:54:28;97901.16;;;2.90;100.00
27202;BME280;14717;46.924;15.474;2024-03-07T04:56:53;97902.13;;;3.11;100.00
27202;BME280;14717;46.924;15.474;2024-03-07T04:59:20;97891.78;;;3.13;100.00
27202;BME280;14717;46.924;15.474;2024-03-07T05:01:48;97907.09;;;3.14;100.00
27202;BME280;14717;46.924;15.474;2024-03-07T05:04:15;97900.97;;;3.07;100.00
27202;BME280;14717;46.924;15.474;2024-03-07T05:06:41;97904.94;;;3.16;100.00
27202;BME280;14717;46.924;15.474;2024-03-07T05:09:08;97909.34;;;3.17;100.00
27202;BME280;14717;46.924;15.474;2024-03-07T05:11:36;97909.25;;;3.12;100.00
27202;BME280;14717;46.924;15.474;2024-03-07T05:14:02;97907.28;;;3.24;100.00
27202;BME280;14717;46.924;15.474;2024-03-07T05:16:29;97911.72;;;3.30;100.00
27202;BME280;14717;46.924;15.474;2024-03-07T05:18:55;97902.31;;;3.38;100.00
27202;BME280;14717;46.924;15.474;2024-03-07T05:21:27;97908.59;;;3.38;100.00
27202;BME280;14717;46.924;15.474;2024-03-07T05:24:13;97915.41;;;3.36;100.00
27202;BME280;14717;46.924;15.474;2024-03-07T05:26:38;97907.63;;;3.44;100.00
27202;BME280;14717;46.924;15.474;2024-03-07T05:29:07;97915.97;;;3.54;100.00
27202;BME280;14717;46.924;15.474;2024-03-07T05:31:37;97923.66;;;3.40;100.00
27202;BME280;14717;46.924;15.474;2024-03-07T05:34:06;97925.28;;;3.25;100.00
27202;BME280;14717;46.924;15.474;2024-03-07T05:36:37;97924.00;;;3.44;100.00
27202;BME280;14717;46.924;15.474;2024-03-07T05:39:13;97925.81;;;3.55;100.00
27202;BME280;14717;46.924;15.474;2024-03-07T05:41:39;97939.97;;;3.52;100.00
27202;BME280;14717;46.924;15.474;2024-03-07T05:44:06;97940.47;;;3.49;100.00
27202;BME280;14717;46.924;15.474;2024-03-07T05:46:41;97933.91;;;3.50;100.00
27202;BME280;14717;46.924;15.474;2024-03-07T05:49:10;97939.91;;;3.47;100.00
27202;BME280;14717;46.924;15.474;2024-03-07T05:51:36;97932.84;;;3.51;100.00
27202;BME280;14717;46.924;15.474;2024-03-07T05:54:02;97944.19;;;3.59;100.00
27202;BME280;14717;46.924;15.474;2024-03-07T05:56:34;97948.75;;;3.70;100.00
27202;BME280;14717;46.924;15.474;2024-03-07T05:59:03;97945.09;;;3.81;100.00
27202;BME280;14717;46.924;15.474;2024-03-07T06:01:35;97949.50;;;3.82;100.00
27202;BME280;14717;46.924;15.474;2024-03-07T06:04:02;97936.41;;;3.84;100.00
27202;BME280;14717;46.924;15.474;2024-03-07T06:06:28;97955.28;;;3.85;100.00
27202;BME280;14717;46.924;15.474;2024-03-07T06:08:57;97944.53;;;3.95;100.00
27202;BME280;14717;46.924;15.474;2024-03-07T06:11:22;97952.97;;;4.10;100.00
27202;BME280;14717;46.924;15.474;2024-03-07T06:13:48;97955.78;;;4.15;100.00
27202;BME280;14717;46.924;15.474;2024-03-07T06:16:14;97954.78;;;4.21;100.00
27202;BME280;14717;46.924;15.474;2024-03-07T06:18:42;97953.00;;;4.31;100.00
27202;BME280;14717;46.924;15.474;2024-03-07T06:21:08;97947.94;;;4.40;100.00
27202;BME280;14717;46.924;15.474;2024-03-07T06:23:34;97960.06;;;4.44;100.00
27202;BME280;14717;46.924;15.474;2024-03-07T06:26:00;97952.97;;;4.48;100.00
27202;BME280;14717;46.924;15.474;2024-03-07T06:28:26;97953.31;;;4.51;100.00
27202;BME280;14717;46.924;15.474;2024-03-07T06:30:54;97955.72;;;4.48;100.00
27202;BME280;14717;46.924;15.474;2024-03-07T06:33:19;97963.00;;;4.59;100.00
27202;BME280;14717;46.924;15.474;2024-03-07T06:35:46;97970.16;;;4.64;100.00
27202;BME280;14717;46.924;15.474;2024-03-07T06:38:11;97968.06;;;4.71;100.00
27202;BME280;14717;46.924;15.474;2024-03-07T06:40:38;97959.50;;;4.84;100.00
27202;BME280;14717;46.924;15.474;2024-03-07T06:43:05;97959.88;;;4.93;100.00
27202;BME280;14717;46.924;15.474;2024-03-07T06:45:36;97961.59;;;4.99;100.00
27202;BME280;14717;46.924;15.474;2024-03-07T06:48:03;97964.16;;;5.05;100.00
27202;BME280;14717;46.924;15.474;2024-03-07T06:50:30;97964.34;;;4.99;100.00
27202;BME280;14717;46.924;15.474;2024-03-07T06:52:55;97975.28;;;4.99;100.00
27202;BME280;14717;46.924;15.474;2024-03-07T06:55:21;97967.56;;;5.17;100.00
27202;BME280;14717;46.924;15.474;2024-03-07T06:57:46;97970.16;;;5.28;100.00
27202;BME280;14717;46.924;15.474;2024-03-07T07:00:13;97986.50;;;5.45;100.00
27202;BME280;14717;46.924;15.474;2024-03-07T07:02:39;97981.44;;;5.58;100.00
27202;BME280;14717;46.924;15.474;2024-03-07T07:05:08;97978.53;;;5.69;100.00
27202;BME280;14717;46.924;15.474;2024-03-07T07:07:39;97986.34;;;5.77;100.00
27202;BME280;14717;46.924;15.474;2024-03-07T07:10:08;97988.06;;;5.88;100.00
27202;BME280;14717;46.924;15.474;2024-03-07T07:12:36;97986.00;;;6.00;100.00
27202;BME280;14717;46.924;15.474;2024-03-07T07:15:02;97989.25;;;5.97;100.00
27202;BME280;14717;46.924;15.474;2024-03-07T07:17:28;97985.47;;;6.03;100.00
27202;BME280;14717;46.924;15.474;2024-03-07T07:19:55;97982.81;;;6.13;100.00
27202;BME280;14717;46.924;15.474;2024-03-07T07:22:21;97980.13;;;6.23;100.00
27202;BME280;14717;46.924;15.474;2024-03-07T07:24:47;97979.69;;;6.35;100.00
27202;BME280;14717;46.924;15.474;2024-03-07T07:27:12;97975.38;;;6.44;100.00
27202;BME280;14717;46.924;15.474;2024-03-07T07:29:37;97978.34;;;6.38;100.00
27202;BME280;14717;46.924;15.474;2024-03-07T07:32:03;97983.09;;;6.47;100.00
27202;BME280;14717;46.924;15.474;2024-03-07T07:34:28;97983.44;;;6.56;100.00
27202;BME280;14717;46.924;15.474;2024-03-07T07:36:55;97978.78;;;6.61;100.00
27202;BME280;14717;46.924;15.474;2024-03-07T07:39:21;97980.22;;;6.74;100.00
27202;BME280;14717;46.924;15.474;2024-03-07T07:41:46;97982.19;;;6.83;100.00
27202;BME280;14717;46.924;15.474;2024-03-07T07:44:11;97971.81;;;6.90;100.00
27202;BME280;14717;46.924;15.474;2024-03-07T07:46:37;97967.44;;;6.94;100.00
27202;BME280;14717;46.924;15.474;2024-03-07T07:49:03;97969.63;;;6.92;100.00
27202;BME280;14717;46.924;15.474;2024-03-07T07:51:28;97977.94;;;7.07;100.00
27202;BME280;14717;46.924;15.474;2024-03-07T07:53:53;97972.50;;;7.17;99.17
27202;BME280;14717;46.924;15.474;2024-03-07T07:56:22;97976.09;;;7.22;98.62
27202;BME280;14717;46.924;15.474;2024-03-07T07:58:47;97974.75;;;7.34;98.58
27202;BME280;14717;46.924;15.474;2024-03-07T08:01:14;97974.78;;;7.54;97.63
27202;BME280;14717;46.924;15.474;2024-03-07T08:03:41;97968.75;;;7.57;95.90
27202;BME280;14717;46.924;15.474;2024-03-07T08:06:06;97976.50;;;7.75;95.11
27202;BME280;14717;46.924;15.474;2024-03-07T08:08:31;97971.81;;;7.75;93.06
27202;BME280;14717;46.924;15.474;2024-03-07T08:10:57;97978.16;;;7.71;92.64
27202;BME280;14717;46.924;15.474;2024-03-07T08:13:24;97966.91;;;7.92;90.03
27202;BME280;14717;46.924;15.474;2024-03-07T08:15:50;97972.44;;;7.97;90.10
27202;BME280;14717;46.924;15.474;2024-03-07T08:18:15;97969.94;;;7.96;88.17
27202;BME280;14717;46.924;15.474;2024-03-07T08:20:42;97980.09;;;7.85;85.98
27202;BME280;14717;46.924;15.474;2024-03-07T08:23:08;97977.09;;;7.97;87.35
27202;BME280;14717;46.924;15.474;2024-03-07T08:25:34;97975.19;;;8.07;86.93
27202;BME280;14717;46.924;15.474;2024-03-07T08:28:00;97984.03;;;8.19;85.06
27202;BME280;14717;46.924;15.474;2024-03-07T08:30:25;97978.78;;;8.22;86.48
27202;BME280;14717;46.924;15.474;2024-03-07T08:32:54;97985.09;;;8.13;84.55
27202;BME280;14717;46.924;15.474;2024-03-07T08:35:21;97984.25;;;8.07;85.72
27202;BME280;14717;46.924;15.474;2024-03-07T08:37:48;97989.78;;;8.12;85.36
27202;BME280;14717;46.924;15.474;2024-03-07T08:40:18;97982.09;;;8.34;83.49
27202;BME280;14717;46.924;15.474;2024-03-07T08:42:51;97979.59;;;8.57;82.90
27202;BME280;14717;46.924;15.474;2024-03-07T08:45:17;97973.50;;;8.80;81.70
27202;BME280;14717;46.924;15.474;2024-03-07T08:47:45;97971.22;;;8.97;79.65
27202;BME280;14717;46.924;15.474;2024-03-07T08:50:11;97967.63;;;9.06;75.86
27202;BME280;14717;46.924;15.474;2024-03-07T08:52:38;97973.72;;;8.98;71.94
27202;BME280;14717;46.924;15.474;2024-03-07T08:55:05;97968.75;;;9.10;73.76
27202;BME280;14717;46.924;15.474;2024-03-07T08:57:31;97966.53;;;9.12;76.26
27202;BME280;14717;46.924;15.474;2024-03-07T08:59:56;97970.34;;;9.21;73.35
27202;BME280;14717;46.924;15.474;2024-03-07T09:02:22;97972.53;;;9.24;72.36
27202;BME280;14717;46.924;15.474;2024-03-07T09:04:47;97974.41;;;9.38;72.02
27202;BME280;14717;46.924;15.474;2024-03-07T09:07:13;97970.81;;;9.38;71.23
27202;BME280;14717;46.924;15.474;2024-03-07T09:09:43;97972.38;;;9.59;71.79
27202;BME280;14717;46.924;15.474;2024-03-07T09:12:10;97970.16;;;9.56;73.82
27202;BME280;14717;46.924;15.474;2024-03-07T09:14:36;97967.06;;;9.67;74.95
27202;BME280;14717;46.924;15.474;2024-03-07T09:17:03;97970.63;;;9.73;72.39
27202;BME280;14717;46.924;15.474;2024-03-07T09:19:30;97974.44;;;9.81;73.61
27202;BME280;14717;46.924;15.474;2024-03-07T09:21:55;97968.34;;;9.94;71.43
27202;BME280;14717;46.924;15.474;2024-03-07T09:24:21;97969.97;;;9.95;73.95
27202;BME280;14717;46.924;15.474;2024-03-07T09:26:50;97970.22;;;9.99;71.96
27202;BME280;14717;46.924;15.474;2024-03-07T09:29:16;97962.63;;;10.19;72.04
27202;BME280;14717;46.924;15.474;2024-03-07T09:31:43;97959.22;;;10.32;69.13
27202;BME280;14717;46.924;15.474;2024-03-07T09:34:09;97955.97;;;10.20;68.81
27202;BME280;14717;46.924;15.474;2024-03-07T09:36:34;97962.63;;;10.19;68.03
27202;BME280;14717;46.924;15.474;2024-03-07T09:38:59;97963.56;;;10.38;70.26
27202;BME280;14717;46.924;15.474;2024-03-07T09:41:25;97964.72;;;10.32;68.03
27202;BME280;14717;46.924;15.474;2024-03-07T09:43:52;97961.63;;;10.05;67.82
27202;BME280;14717;46.924;15.474;2024-03-07T09:46:23;97964.34;;;10.10;67.17
27202;BME280;14717;46.924;15.474;2024-03-07T09:48:49;97963.69;;;10.23;67.04
27202;BME280;14717;46.924;15.474;2024-03-07T09:51:19;97959.34;;;10.17;66.96
27202;BME280;14717;46.924;15.474;2024-03-07T09:53:46;97962.41;;;10.11;66.17
27202;BME280;14717;46.924;15.474;2024-03-07T09:56:17;97959.88;;;10.19;65.35
27202;BME280;14717;46.924;15.474;2024-03-07T09:58:49;97954.84;;;10.26;66.82
27202;BME280;14717;46.924;15.474;2024-03-07T10:01:15;97953.09;;;10.35;68.07
27202;BME280;14717;46.924;15.474;2024-03-07T10:03:41;97949.88;;;10.23;64.41
27202;BME280;14717;46.924;15.474;2024-03-07T10:06:10;97959.03;;;10.18;60.88
27202;BME280;14717;46.924;15.474;2024-03-07T10:08:35;97955.75;;;10.45;62.59
27202;BME280;14717;46.924;15.474;2024-03-07T10:11:02;97957.94;;;10.48;62.42
27202;BME280;14717;46.924;15.474;2024-03-07T10:13:28;97954.22;;;10.34;61.23
27202;BME280;14717;46.924;15.474;2024-03-07T10:15:53;97954.56;;;10.56;62.79
27202;BME280;14717;46.924;15.474;2024-03-07T10:18:25;97958.34;;;10.64;59.36
27202;BME280;14717;46.924;15.474;2024-03-07T10:20:53;97959.41;;;10.68;57.91
27202;BME280;14717;46.924;15.474;2024-03-07T10:23:19;97959.03;;;10.80;58.02
27202;BME280;14717;46.924;15.474;2024-03-07T10:25:46;97951.78;;;10.84;58.81
27202;BME280;14717;46.924;15.474;2024-03-07T10:28:12;97958.03;;;10.94;56.82
27202;BME280;14717;46.924;15.474;2024-03-07T10:30:44;97963.97;;;10.55;57.20
27202;BME280;14717;46.924;15.474;2024-03-07T10:33:17;97958.63;;;10.63;57.46
27202;BME280;14717;46.924;15.474;2024-03-07T10:35:42;97958.78;;;10.76;57.80
27202;BME280;14717;46.924;15.474;2024-03-07T10:38:08;97963.88;;;10.93;57.71
27202;BME280;14717;46.924;15.474;2024-03-07T10:40:37;97962.03;;;11.30;54.97
27202;BME280;14717;46.924;15.474;2024-03-07T10:43:09;97955.97;;;11.74;55.34
27202;BME280;14717;46.924;15.474;2024-03-07T10:45:39;97950.34;;;11.79;50.56
27202;BME280;14717;46.924;15.474;2024-03-07T10:48:11;97949.91;;;11.72;50.34
27202;BME280;14717;46.924;15.474;2024-03-07T10:55:53;97947.75;;;11.23;55.00
27202;BME280;14717;46.924;15.474;2024-03-07T10:58:23;97944.88;;;11.33;55.98
27202;BME280;14717;46.924;15.474;2024-03-07T11:00:51;97943.44;;;11.12;56.38
27202;BME280;14717;46.924;15.474;2024-03-07T11:03:18;97941.59;;;10.79;55.85
27202;BME280;14717;46.924;15.474;2024-03-07T11:05:46;97941.09;;;10.77;59.43
27202;BME280;14717;46.924;15.474;2024-03-07T11:08:12;97931.88;;;11.10;58.61
27202;BME280;14717;46.924;15.474;2024-03-07T11:10:37;97945.16;;;11.31;56.38
27202;BME280;14717;46.924;15.474;2024-03-07T11:13:04;97941.31;;;11.04;56.36
27202;BME280;14717;46.924;15.474;2024-03-07T11:15:32;97943.44;;;10.89;57.16
27202;BME280;14717;46.924;15.474;2024-03-07T11:17:58;97942.94;;;10.59;56.55
27202;BME280;14717;46.924;15.474;2024-03-07T11:20:25;97946.78;;;10.29;59.33
27202;BME280;14717;46.924;15.474;2024-03-07T11:22:51;97954.34;;;10.19;60.47
27202;BME280;14717;46.924;15.474;2024-03-07T11:25:20;97953.25;;;10.15;61.57
27202;BME280;14717;46.924;15.474;2024-03-07T11:27:55;97950.13;;;9.93;61.39
27202;BME280;14717;46.924;15.474;2024-03-07T11:30:22;97947.94;;;9.85;62.67
27202;BME280;14717;46.924;15.474;2024-03-07T11:32:47;97938.50;;;9.91;65.05
27202;BME280;14717;46.924;15.474;2024-03-07T11:35:15;97940.28;;;9.73;58.78
27202;BME280;14717;46.924;15.474;2024-03-07T11:37:41;97940.88;;;9.70;59.07
27202;BME280;14717;46.924;15.474;2024-03-07T11:42:52;97933.09;;;9.76;65.33
27202;BME280;14717;46.924;15.474;2024-03-07T11:45:20;97934.94;;;9.91;68.00
27202;BME280;14717;46.924;15.474;2024-03-07T11:47:56;97921.31;;;10.09;65.78
27202;BME280;14717;46.924;15.474;2024-03-07T11:50:28;97932.38;;;10.04;61.37
27202;BME280;14717;46.924;15.474;2024-03-07T11:52:54;97924.47;;;9.88;56.72
27202;BME280;14717;46.924;15.474;2024-03-07T11:55:23;97921.09;;;10.01;61.84
27202;BME280;14717;46.924;15.474;2024-03-07T11:57:49;97913.50;;;10.16;58.99
27202;BME280;14717;46.924;15.474;2024-03-07T12:00:19;97917.31;;;10.20;59.99
27202;BME280;14717;46.924;15.474;2024-03-07T12:02:45;97909.59;;;10.22;61.52
27202;BME280;14717;46.924;15.474;2024-03-07T12:05:12;97915.59;;;10.29;62.04
27202;BME280;14717;46.924;15.474;2024-03-07T12:07:41;97924.03;;;10.14;61.72
27202;BME280;14717;46.924;15.474;2024-03-07T12:10:07;97921.66;;;9.98;60.88
27202;BME280;14717;46.924;15.474;2024-03-07T12:12:32;97921.63;;;10.03;59.87
27202;BME280;14717;46.924;15.474;2024-03-07T12:14:58;97914.44;;;10.02;61.20
27202;BME280;14717;46.924;15.474;2024-03-07T12:17:24;97907.88;;;9.98;61.75
27202;BME280;14717;46.924;15.474;2024-03-07T12:19:50;97912.41;;;10.17;60.33
27202;BME280;14717;46.924;15.474;2024-03-07T12:22:22;97908.84;;;10.12;59.71
27202;BME280;14717;46.924;15.474;2024-03-07T12:25:01;97919.75;;;10.26;59.48
27202;BME280;14717;46.924;15.474;2024-03-07T12:27:33;97915.38;;;10.25;58.95
27202;BME280;14717;46.924;15.474;2024-03-07T12:29:59;97907.75;;;10.13;61.40
27202;BME280;14717;46.924;15.474;2024-03-07T12:32:27;97905.28;;;10.11;60.78
27202;BME280;14717;46.924;15.474;2024-03-07T12:34:53;97906.50;;;9.90;59.64
27202;BME280;14717;46.924;15.474;2024-03-07T12:37:18;97915.38;;;9.82;61.25
27202;BME280;14717;46.924;15.474;2024-03-07T12:39:44;97906.72;;;9.61;59.43
27202;BME280;14717;46.924;15.474;2024-03-07T12:42:15;97910.47;;;9.79;61.84
27202;BME280;14717;46.924;15.474;2024-03-07T12:44:42;97911.94;;;10.05;60.60
27202;BME280;14717;46.924;15.474;2024-03-07T12:47:15;97906.13;;;10.07;60.39
27202;BME280;14717;46.924;15.474;2024-03-07T12:49:41;97909.88;;;9.82;58.26
27202;BME280;14717;46.924;15.474;2024-03-07T12:52:07;97908.81;;;9.78;60.14
27202;BME280;14717;46.924;15.474;2024-03-07T12:54:36;97912.28;;;9.94;60.13
27202;BME280;14717;46.924;15.474;2024-03-07T12:57:08;97899.63;;;9.93;57.69
27202;BME280;14717;46.924;15.474;2024-03-07T12:59:35;97908.84;;;9.74;57.01